Time;durP1;ratioP1;P1;durP2;ratioP2;P2;SDS_P1;SDS_P2;PMS_P1;PMS_P2;Temp;Humidity;BMP_temperature;BMP_pressure;BME280_temperature;BME280_humidity;BME280_pressure;Samples;Min_cycle;Max_cycle;Signal;HPM_P1;HPM_P2
2023/06/18 00:01:57;;;;;;;6.20;4.20;;;23.10;78.80;;;;;;5069145;28;20066;-85
2023/06/18 00:04:23;;;;;;;8.10;4.20;;;23.10;78.90;;;;;;5065554;28;20062;-87
2023/06/18 00:06:48;;;;;;;5.53;3.85;;;23.00;78.90;;;;;;5080143;28;20063;-86
2023/06/18 00:09:14;;;;;;;5.32;4.10;;;22.90;78.90;;;;;;5062801;28;20025;-86
2023/06/18 00:11:40;;;;;;;7.75;3.92;;;23.00;79.10;;;;;;5073603;28;20020;-85
2023/06/18 00:14:05;;;;;;;6.90;4.28;;;22.90;79.30;;;;;;5072321;28;20039;-86
2023/06/18 00:16:31;;;;;;;6.65;4.63;;;22.80;79.40;;;;;;5075581;28;20058;-88
2023/06/18 00:18:57;;;;;;;5.35;4.15;;;22.80;79.60;;;;;;5059001;28;20052;-86
2023/06/18 00:21:22;;;;;;;5.82;4.38;;;22.70;79.70;;;;;;5074653;28;20020;-87
2023/06/18 00:23:48;;;;;;;6.72;4.15;;;22.70;79.90;;;;;;5075724;28;20046;-86
2023/06/18 00:26:13;;;;;;;5.85;4.00;;;22.60;79.90;;;;;;5066791;28;20046;-86
2023/06/18 00:28:39;;;;;;;5.38;4.35;;;22.60;80.00;;;;;;5075535;28;20016;-85
2023/06/18 00:31:05;;;;;;;5.30;4.00;;;22.50;80.00;;;;;;5064885;28;20208;-87
2023/06/18 00:33:32;;;;;;;5.63;4.10;;;22.50;80.20;;;;;;5067508;28;20036;-86
2023/06/18 00:35:59;;;;;;;5.25;3.72;;;22.50;80.30;;;;;;5079009;28;20107;-87
2023/06/18 00:38:28;;;;;;;5.65;3.80;;;22.40;80.30;;;;;;5079756;28;20070;-89
2023/06/18 00:40:54;;;;;;;5.85;4.15;;;22.40;80.50;;;;;;5076120;28;20085;-89
2023/06/18 00:43:19;;;;;;;5.35;4.22;;;22.40;80.50;;;;;;5068579;28;20013;-89
2023/06/18 00:45:46;;;;;;;6.70;4.22;;;22.40;80.60;;;;;;5069114;28;20028;-88
2023/06/18 00:48:12;;;;;;;5.50;4.25;;;22.30;80.80;;;;;;5068362;28;20040;-89
2023/06/18 00:50:40;;;;;;;5.45;3.95;;;22.30;80.80;;;;;;5067594;28;20051;-86
2023/06/18 00:53:07;;;;;;;5.25;3.70;;;22.30;80.90;;;;;;5078211;28;20020;-87
2023/06/18 00:55:36;;;;;;;5.50;3.75;;;22.30;80.90;;;;;;5063661;28;20512;-86
2023/06/18 00:58:03;;;;;;;4.88;3.90;;;22.20;80.90;;;;;;5067381;28;20040;-87
2023/06/18 01:00:32;;;;;;;5.28;3.90;;;22.20;80.90;;;;;;5081968;28;20477;-88
2023/06/18 01:02:59;;;;;;;3.92;3.20;;;22.20;80.80;;;;;;5077087;28;20030;-86
2023/06/18 01:05:25;;;;;;;4.65;3.33;;;22.20;80.80;;;;;;5081376;28;20027;-87
2023/06/18 01:07:52;;;;;;;5.43;3.50;;;22.20;80.70;;;;;;5077606;28;20382;-87
2023/06/18 01:10:20;;;;;;;5.43;3.60;;;22.20;81.40;;;;;;5069049;28;20046;-86
2023/06/18 01:12:48;;;;;;;7.55;3.80;;;22.20;80.90;;;;;;5065549;28;20030;-85
2023/06/18 01:15:16;;;;;;;6.68;4.00;;;22.10;80.90;;;;;;5060451;28;20024;-88
2023/06/18 01:17:46;;;;;;;6.30;3.60;;;22.00;81.00;;;;;;5079311;28;20532;-88
2023/06/18 01:20:12;;;;;;;4.97;3.30;;;22.00;81.20;;;;;;5069974;28;20043;-87
2023/06/18 01:22:51;;;;;;;5.43;3.58;;;21.90;81.30;;;;;;5081578;28;20048;-85
2023/06/18 01:25:18;;;;;;;4.72;3.17;;;21.90;81.40;;;;;;5074472;28;20035;-85
2023/06/18 01:27:46;;;;;;;5.13;3.63;;;21.80;81.50;;;;;;5064549;28;20035;-84
2023/06/18 01:30:13;;;;;;;3.55;2.92;;;21.70;81.60;;;;;;5063008;28;20402;-84
2023/06/18 01:32:40;;;;;;;4.25;3.50;;;21.70;81.60;;;;;;5074950;28;20492;-85
2023/06/18 01:35:08;;;;;;;6.70;3.60;;;21.70;81.60;;;;;;5064747;28;20039;-84
2023/06/18 01:37:36;;;;;;;6.07;3.70;;;21.60;81.70;;;;;;5075689;28;20025;-84
2023/06/18 01:40:21;;;;;;;6.07;3.92;;;21.60;81.80;;;;;;5063197;28;20035;-87
2023/06/18 01:42:55;;;;;;;5.15;3.58;;;21.60;81.80;;;;;;5075327;28;20031;-86
2023/06/18 01:45:26;;;;;;;5.53;3.65;;;21.50;82.00;;;;;;5074882;28;20107;-86
2023/06/18 01:47:56;;;;;;;5.53;3.28;;;21.50;82.10;;;;;;5063268;28;20024;-85
2023/06/18 01:50:26;;;;;;;4.53;3.38;;;21.40;82.10;;;;;;5060644;28;20051;-87
2023/06/18 01:52:52;;;;;;;4.13;3.05;;;21.40;82.20;;;;;;5075874;28;20023;-84
2023/06/18 01:55:20;;;;;;;4.68;3.22;;;21.30;82.30;;;;;;5073782;28;20522;-85
2023/06/18 01:57:48;;;;;;;4.90;3.67;;;21.30;82.40;;;;;;5073469;28;20028;-84
2023/06/18 02:00:14;;;;;;;5.57;3.75;;;21.20;82.40;;;;;;5064404;28;20044;-86
2023/06/18 02:02:40;;;;;;;4.57;3.30;;;21.20;82.60;;;;;;5057438;28;20459;-85
2023/06/18 02:05:06;;;;;;;5.00;3.65;;;21.20;82.70;;;;;;5066465;28;20028;-86
2023/06/18 02:07:31;;;;;;;7.90;4.45;;;21.10;82.80;;;;;;5059746;28;20504;-83
2023/06/18 02:09:57;;;;;;;5.35;3.70;;;21.10;82.90;;;;;;5073451;28;20031;-85
2023/06/18 02:12:22;;;;;;;4.65;3.20;;;21.00;82.90;;;;;;5058399;28;20531;-86
2023/06/18 02:14:48;;;;;;;4.75;3.72;;;21.00;83.10;;;;;;5074524;28;20028;-85
2023/06/18 02:17:14;;;;;;;6.00;3.50;;;20.90;83.20;;;;;;5064273;28;20035;-87
2023/06/18 02:19:40;;;;;;;4.65;3.30;;;20.80;83.40;;;;;;5057650;28;20081;-86
2023/06/18 02:22:06;;;;;;;4.28;3.20;;;20.80;83.50;;;;;;5075101;28;20051;-87
2023/06/18 02:24:32;;;;;;;4.30;3.20;;;20.70;83.60;;;;;;5063929;28;20024;-87
2023/06/18 02:26:58;;;;;;;4.57;3.47;;;20.70;83.80;;;;;;5074243;28;20492;-85
2023/06/18 02:29:23;;;;;;;4.07;3.10;;;20.60;83.80;;;;;;5055016;28;20032;-85
2023/06/18 02:31:49;;;;;;;5.30;3.58;;;20.60;84.00;;;;;;5072403;28;20057;-89
2023/06/18 02:34:15;;;;;;;4.60;3.22;;;20.50;84.10;;;;;;5064883;28;20082;-86
2023/06/18 02:36:40;;;;;;;5.30;3.67;;;20.50;84.20;;;;;;5057341;28;20378;-85
2023/06/18 02:39:08;;;;;;;4.60;3.22;;;20.40;84.40;;;;;;5063421;28;20059;-86
2023/06/18 02:41:33;;;;;;;5.20;3.45;;;20.40;84.50;;;;;;5073663;28;20028;-86
2023/06/18 02:43:59;;;;;;;5.10;3.67;;;20.40;84.60;;;;;;5073581;28;20039;-86
2023/06/18 02:46:25;;;;;;;6.38;3.83;;;20.30;84.70;;;;;;5058188;28;20024;-84
2023/06/18 02:48:50;;;;;;;4.78;3.60;;;20.30;84.80;;;;;;5062483;28;20032;-86
2023/06/18 02:51:16;;;;;;;4.50;3.30;;;20.30;84.90;;;;;;5063670;28;20043;-87
2023/06/18 02:53:41;;;;;;;6.90;3.97;;;20.20;85.00;;;;;;5059532;28;20144;-84
2023/06/18 02:56:07;;;;;;;4.40;3.40;;;20.20;85.00;;;;;;5074481;28;22285;-85
2023/06/18 02:58:35;;;;;;;5.10;3.60;;;20.20;85.10;;;;;;5074417;28;20102;-84
2023/06/18 03:01:02;;;;;;;6.10;3.72;;;20.10;85.10;;;;;;5073538;28;20035;-86
2023/06/18 03:03:28;;;;;;;4.88;3.50;;;20.10;85.30;;;;;;5064129;28;20044;-86
2023/06/18 03:05:53;;;;;;;6.15;3.97;;;20.10;85.50;;;;;;5058739;28;20055;-85
2023/06/18 03:08:19;;;;;;;5.07;3.50;;;20.00;85.60;;;;;;5072633;28;20020;-85
2023/06/18 03:10:46;;;;;;;5.68;3.65;;;20.00;85.80;;;;;;5063001;28;20120;-85
2023/06/18 03:13:11;;;;;;;7.22;3.72;;;19.90;85.80;;;;;;5063230;28;20017;-85
2023/06/18 03:15:37;;;;;;;7.32;3.50;;;19.90;86.00;;;;;;5073792;28;20035;-86
2023/06/18 03:18:04;;;;;;;4.78;3.50;;;19.90;86.10;;;;;;5062134;28;20437;-85
2023/06/18 03:20:30;;;;;;;4.32;3.38;;;19.90;86.30;;;;;;5062785;28;20035;-86
2023/06/18 03:22:56;;;;;;;5.05;3.38;;;19.80;86.30;;;;;;5057342;28;20119;-86
2023/06/18 03:25:22;;;;;;;5.72;4.10;;;19.80;86.40;;;;;;5072410;28;20974;-87
2023/06/18 03:27:48;;;;;;;4.55;3.53;;;19.80;86.60;;;;;;5075102;28;20032;-86
2023/06/18 03:30:14;;;;;;;6.22;3.75;;;19.80;86.70;;;;;;5063699;28;20033;-86
2023/06/18 03:32:40;;;;;;;6.63;4.20;;;19.80;86.80;;;;;;5067475;28;20080;-86
2023/06/18 03:35:06;;;;;;;6.63;4.20;;;19.70;86.90;;;;;;5064584;28;20684;-87
2023/06/18 03:37:32;;;;;;;6.07;3.75;;;19.70;87.10;;;;;;5077080;28;20435;-84
2023/06/18 03:39:58;;;;;;;7.25;3.92;;;19.70;87.30;;;;;;5066009;28;20044;-86
2023/06/18 03:42:24;;;;;;;5.63;4.07;;;19.60;87.40;;;;;;5077877;28;20024;-86
2023/06/18 03:44:49;;;;;;;5.57;3.85;;;19.60;87.60;;;;;;5075227;28;20020;-85
2023/06/18 03:47:15;;;;;;;5.22;4.10;;;19.60;87.70;;;;;;5067154;28;20594;-85
2023/06/18 03:49:41;;;;;;;6.13;3.88;;;19.60;87.80;;;;;;5067035;28;20478;-86
2023/06/18 03:52:07;;;;;;;5.88;3.97;;;19.60;87.90;;;;;;5065745;28;20020;-85
2023/06/18 03:54:32;;;;;;;6.30;4.38;;;19.60;87.90;;;;;;5077747;28;20716;-86
2023/06/18 03:56:58;;;;;;;4.97;3.65;;;19.60;87.90;;;;;;5076030;28;20024;-85
2023/06/18 03:59:24;;;;;;;4.43;3.75;;;19.60;88.00;;;;;;5066310;28;20059;-84
2023/06/18 04:01:50;;;;;;;6.28;4.05;;;19.60;88.00;;;;;;5076126;28;20032;-85
2023/06/18 04:04:16;;;;;;;5.90;4.30;;;19.60;88.10;;;;;;5077662;28;20461;-86
2023/06/18 04:06:41;;;;;;;5.90;4.18;;;19.70;88.20;;;;;;5065606;28;20393;-85
2023/06/18 04:09:07;;;;;;;6.32;3.83;;;19.70;88.20;;;;;;5075258;28;20578;-84
2023/06/18 04:11:33;;;;;;;6.28;4.22;;;19.70;88.20;;;;;;5075414;28;20029;-86
2023/06/18 04:13:58;;;;;;;6.03;4.35;;;19.70;88.30;;;;;;5060731;28;20028;-86
2023/06/18 04:16:24;;;;;;;5.85;3.78;;;19.70;88.20;;;;;;5075972;28;20094;-85
2023/06/18 04:18:50;;;;;;;5.65;3.83;;;19.80;88.30;;;;;;5061230;28;20020;-86
2023/06/18 04:21:15;;;;;;;4.80;3.90;;;19.80;88.30;;;;;;5077019;28;20037;-85
2023/06/18 04:23:42;;;;;;;5.10;4.18;;;19.90;88.30;;;;;;5076552;28;20111;-85
2023/06/18 04:26:08;;;;;;;5.68;4.25;;;19.90;88.60;;;;;;5060343;28;20348;-85
2023/06/18 04:28:33;;;;;;;5.22;3.60;;;20.00;88.30;;;;;;5075966;28;20028;-85
2023/06/18 04:30:59;;;;;;;4.70;3.80;;;20.10;88.20;;;;;;5064820;28;20020;-85
2023/06/18 04:33:24;;;;;;;5.60;3.95;;;20.10;88.10;;;;;;5077817;28;20488;-85
2023/06/18 04:35:50;;;;;;;6.10;4.63;;;20.10;88.00;;;;;;5077119;28;20241;-86
2023/06/18 04:38:16;;;;;;;6.63;4.88;;;20.20;88.00;;;;;;5076071;28;20037;-86
2023/06/18 04:40:41;;;;;;;5.05;3.95;;;20.20;88.10;;;;;;5065097;28;20042;-85
2023/06/18 04:43:07;;;;;;;5.05;3.85;;;20.30;88.00;;;;;;5066426;28;20127;-88
2023/06/18 04:45:32;;;;;;;4.57;3.55;;;20.30;88.00;;;;;;5075444;28;20090;-85
2023/06/18 04:47:58;;;;;;;6.72;4.60;;;20.30;87.90;;;;;;5066423;28;20466;-87
2023/06/18 04:50:24;;;;;;;6.68;4.68;;;20.40;88.00;;;;;;5077486;28;20051;-84
2023/06/18 04:52:50;;;;;;;6.15;4.50;;;20.40;88.10;;;;;;5073577;28;20058;-85
2023/06/18 04:55:15;;;;;;;6.15;4.65;;;20.40;88.10;;;;;;5073850;28;20029;-85
2023/06/18 04:57:41;;;;;;;6.22;4.30;;;20.40;88.20;;;;;;5076067;28;20481;-85
2023/06/18 05:00:08;;;;;;;5.63;4.38;;;20.40;88.20;;;;;;5067726;28;20048;-85
2023/06/18 05:02:34;;;;;;;5.68;4.20;;;20.40;88.20;;;;;;5075571;28;20020;-84
2023/06/18 05:04:59;;;;;;;6.10;4.50;;;20.40;88.20;;;;;;5064507;28;20024;-84
2023/06/18 05:07:25;;;;;;;5.22;4.13;;;20.50;88.20;;;;;;5060378;28;20028;-85
2023/06/18 05:09:51;;;;;;;6.97;4.63;;;20.50;88.30;;;;;;5064874;28;20024;-84
2023/06/18 05:12:16;;;;;;;5.40;4.45;;;20.50;88.90;;;;;;5059407;28;20568;-86
2023/06/18 05:14:42;;;;;;;6.15;4.55;;;20.50;88.20;;;;;;5075217;28;20048;-85
2023/06/18 05:17:07;;;;;;;8.15;4.75;;;20.50;88.20;;;;;;5076415;28;20037;-86
2023/06/18 05:19:33;;;;;;;6.07;4.68;;;20.60;88.30;;;;;;5076804;28;20040;-85
2023/06/18 05:21:59;;;;;;;6.28;4.50;;;20.60;88.30;;;;;;5063729;28;20070;-84
2023/06/18 05:24:24;;;;;;;6.32;4.90;;;20.60;88.30;;;;;;5063019;28;20138;-83
2023/06/18 05:26:50;;;;;;;6.40;4.60;;;20.60;88.40;;;;;;5064042;28;20166;-83
2023/06/18 05:29:18;;;;;;;6.22;4.22;;;20.60;88.40;;;;;;5074983;28;20028;-84
2023/06/18 05:31:43;;;;;;;5.57;4.80;;;20.70;88.40;;;;;;5063153;28;20044;-83
2023/06/18 05:34:09;;;;;;;6.57;5.05;;;20.60;88.30;;;;;;5073234;28;20067;-84
2023/06/18 05:36:34;;;;;;;6.30;4.78;;;20.70;88.40;;;;;;5057704;28;20055;-84
2023/06/18 05:39:00;;;;;;;6.00;4.60;;;20.70;88.40;;;;;;5057278;28;20050;-83
2023/06/18 05:41:26;;;;;;;6.22;4.60;;;20.70;88.40;;;;;;5073547;28;20040;-84
2023/06/18 05:43:52;;;;;;;6.03;4.35;;;20.70;88.30;;;;;;5058890;28;20600;-85
2023/06/18 05:46:18;;;;;;;6.88;4.88;;;20.80;88.30;;;;;;5063448;28;20105;-85
2023/06/18 05:48:43;;;;;;;6.40;4.75;;;20.90;88.20;;;;;;5074120;28;20485;-84
2023/06/18 05:51:09;;;;;;;6.18;4.93;;;20.90;88.10;;;;;;5071859;28;20032;-84
2023/06/18 05:53:34;;;;;;;7.05;5.18;;;21.00;88.00;;;;;;5072271;28;20046;-84
2023/06/18 05:56:00;;;;;;;6.65;4.55;;;21.10;88.00;;;;;;5058264;28;20075;-82
2023/06/18 05:58:26;;;;;;;6.72;5.05;;;21.10;87.80;;;;;;5063862;28;20032;-84
2023/06/18 06:00:52;;;;;;;7.93;5.00;;;21.20;87.70;;;;;;5059508;28;20036;-84
2023/06/18 06:03:17;;;;;;;5.95;4.88;;;21.30;87.50;;;;;;5074901;28;20044;-84
2023/06/18 06:05:43;;;;;;;6.57;5.18;;;21.40;87.40;;;;;;5072364;28;20040;-84
2023/06/18 06:08:08;;;;;;;8.00;5.43;;;21.50;87.30;;;;;;5073636;28;20039;-85
2023/06/18 06:10:35;;;;;;;7.50;5.05;;;21.50;87.10;;;;;;5074433;28;20040;-85
2023/06/18 06:13:02;;;;;;;6.30;4.65;;;21.50;86.90;;;;;;5073069;28;20027;-85
2023/06/18 06:15:27;;;;;;;5.80;4.32;;;21.60;86.80;;;;;;5061467;28;20405;-84
2023/06/18 06:17:53;;;;;;;6.53;4.90;;;21.60;86.70;;;;;;5063275;28;20242;-83
2023/06/18 06:20:19;;;;;;;7.25;4.82;;;21.70;86.60;;;;;;5056920;28;20120;-85
2023/06/18 06:22:44;;;;;;;7.03;5.15;;;21.80;86.50;;;;;;5075132;28;20142;-85
2023/06/18 06:25:10;;;;;;;6.05;4.97;;;21.80;86.40;;;;;;5062307;28;20135;-85
2023/06/18 06:27:37;;;;;;;6.57;4.88;;;21.90;86.40;;;;;;5060459;28;20028;-83
2023/06/18 06:30:05;;;;;;;6.60;4.75;;;22.00;86.30;;;;;;5073816;28;20028;-84
2023/06/18 06:32:30;;;;;;;6.72;4.97;;;22.10;86.20;;;;;;5061701;28;20048;-83
2023/06/18 06:34:56;;;;;;;6.22;4.93;;;22.20;86.10;;;;;;5071912;28;20071;-84
2023/06/18 06:37:21;;;;;;;5.95;4.80;;;22.30;86.00;;;;;;5071508;28;20032;-82
2023/06/18 06:39:48;;;;;;;8.73;5.13;;;22.40;85.80;;;;;;5061773;28;20025;-84
2023/06/18 06:42:14;;;;;;;6.70;5.10;;;22.50;85.60;;;;;;5062512;28;20023;-86
2023/06/18 06:44:39;;;;;;;6.55;5.43;;;22.60;85.40;;;;;;5059045;28;20106;-84
2023/06/18 06:47:05;;;;;;;6.82;5.32;;;22.70;85.10;;;;;;5062654;28;20264;-82
2023/06/18 06:49:31;;;;;;;6.78;5.55;;;22.80;84.70;;;;;;5073059;28;20044;-83
2023/06/18 06:51:57;;;;;;;6.97;5.05;;;22.90;84.70;;;;;;5062192;28;20025;-82
2023/06/18 06:54:23;;;;;;;8.48;4.95;;;23.00;84.30;;;;;;5062565;28;20032;-82
2023/06/18 06:56:48;;;;;;;6.30;4.93;;;23.10;84.00;;;;;;5070139;28;20028;-81
2023/06/18 06:59:14;;;;;;;6.72;4.70;;;23.20;83.80;;;;;;5070584;28;20024;-83
2023/06/18 07:01:39;;;;;;;6.15;4.60;;;23.30;83.60;;;;;;5070711;28;20040;-87
2023/06/18 07:04:05;;;;;;;5.45;4.63;;;23.40;83.30;;;;;;5043547;28;20094;-84
2023/06/18 07:06:31;;;;;;;5.65;4.72;;;23.50;83.00;;;;;;5069890;28;20036;-80
2023/06/18 07:08:57;;;;;;;5.95;4.65;;;23.60;82.70;;;;;;5069799;28;20473;-84
2023/06/18 07:11:23;;;;;;;5.80;4.72;;;23.60;82.50;;;;;;5070728;28;20075;-83
2023/06/18 07:13:49;;;;;;;5.30;4.28;;;23.70;82.40;;;;;;5053395;28;20031;-84
2023/06/18 07:16:14;;;;;;;5.55;4.47;;;23.80;82.20;;;;;;5059850;28;20036;-83
2023/06/18 07:18:40;;;;;;;6.35;4.85;;;23.90;81.80;;;;;;5059606;28;20024;-84
2023/06/18 07:21:05;;;;;;;5.72;4.57;;;24.00;81.40;;;;;;5052727;28;20048;-84
2023/06/18 07:23:31;;;;;;;6.68;5.10;;;24.20;81.10;;;;;;5058874;28;20638;-83
2023/06/18 07:25:57;;;;;;;7.05;5.25;;;24.30;80.70;;;;;;5069461;28;20058;-83
2023/06/18 07:28:22;;;;;;;9.27;6.30;;;24.30;80.00;;;;;;5055369;28;20029;-83
2023/06/18 07:30:48;;;;;;;7.55;5.68;;;24.50;79.70;;;;;;5060162;28;20090;-83
2023/06/18 07:33:13;;;;;;;6.88;5.50;;;24.50;79.40;;;;;;5069319;28;20032;-84
2023/06/18 07:35:39;;;;;;;7.10;5.32;;;24.60;79.00;;;;;;5069317;28;20470;-83
2023/06/18 07:38:04;;;;;;;7.53;5.60;;;24.70;78.90;;;;;;5059228;28;20501;-83
2023/06/18 07:40:33;;;;;;;7.93;6.50;;;24.80;78.60;;;;;;5059219;28;20395;-84
2023/06/18 07:42:59;;;;;;;6.60;5.55;;;24.80;78.00;;;;;;5055793;28;20064;-84
2023/06/18 07:45:25;;;;;;;5.70;4.82;;;24.80;78.10;;;;;;5060279;28;20035;-84
2023/06/18 07:47:51;;;;;;;12.48;4.93;;;24.90;78.10;;;;;;5053212;28;20032;-83
2023/06/18 07:50:16;;;;;;;6.30;4.60;;;24.90;78.10;;;;;;5069762;28;20048;-83
2023/06/18 07:52:42;;;;;;;6.00;4.60;;;25.00;78.10;;;;;;5061044;28;20390;-83
2023/06/18 07:55:08;;;;;;;5.47;4.43;;;25.10;78.00;;;;;;5068885;28;20040;-83
2023/06/18 07:57:33;;;;;;;5.60;4.88;;;25.20;77.70;;;;;;5055215;28;20043;-83
2023/06/18 08:00:00;;;;;;;5.82;4.63;;;25.20;77.60;;;;;;5068328;28;20477;-82
2023/06/18 08:02:26;;;;;;;5.50;4.50;;;25.20;77.40;;;;;;5058441;28;20025;-83
2023/06/18 08:04:51;;;;;;;6.20;4.18;;;25.10;77.40;;;;;;5052996;28;20031;-82
2023/06/18 08:07:17;;;;;;;5.65;4.63;;;25.10;77.40;;;;;;5059253;28;20040;-83
2023/06/18 08:09:43;;;;;;;5.45;4.53;;;25.00;77.50;;;;;;5053845;28;20089;-82
2023/06/18 08:12:08;;;;;;;5.80;4.22;;;25.00;77.70;;;;;;5069009;28;20035;-83
2023/06/18 08:14:34;;;;;;;5.82;4.47;;;25.00;77.90;;;;;;5073216;28;20113;-82
2023/06/18 08:17:00;;;;;;;5.30;4.05;;;25.00;77.80;;;;;;5074085;28;20089;-82
2023/06/18 08:19:25;;;;;;;5.03;3.72;;;25.10;77.60;;;;;;5058288;28;20028;-82
2023/06/18 08:21:52;;;;;;;6.20;4.53;;;25.20;77.40;;;;;;5073233;28;20404;-81
2023/06/18 08:24:18;;;;;;;5.50;4.03;;;25.30;77.20;;;;;;5073371;28;20044;-82
2023/06/18 08:26:44;;;;;;;6.93;4.32;;;25.40;77.10;;;;;;5073098;28;20469;-82
2023/06/18 08:29:10;;;;;;;5.20;4.10;;;25.40;76.80;;;;;;5074108;28;20486;-82
2023/06/18 08:31:35;;;;;;;6.10;4.53;;;25.50;76.60;;;;;;5072379;28;20036;-81
2023/06/18 08:34:01;;;;;;;5.38;4.07;;;25.70;76.40;;;;;;5071811;28;20442;-83
2023/06/18 08:36:27;;;;;;;4.40;3.85;;;25.70;76.10;;;;;;5071760;28;20036;-84
2023/06/18 08:38:52;;;;;;;4.72;3.88;;;25.80;76.10;;;;;;5062249;28;20025;-84
2023/06/18 08:41:18;;;;;;;4.78;4.00;;;25.90;75.80;;;;;;5057361;28;20024;-83
2023/06/18 08:43:45;;;;;;;4.78;4.20;;;26.10;75.60;;;;;;5073798;28;21054;-84
2023/06/18 08:46:13;;;;;;;5.15;4.07;;;26.10;75.30;;;;;;5060181;28;20060;-83
2023/06/18 08:48:51;;;;;;;6.60;4.43;;;26.30;75.40;;;;;;5072193;28;20032;-84
2023/06/18 08:51:18;;;;;;;5.78;4.07;;;26.50;75.10;;;;;;5069638;28;20041;-82
2023/06/18 08:53:53;;;;;;;5.50;3.85;;;26.50;74.60;;;;;;5072133;28;20604;-83
2023/06/18 08:56:22;;;;;;;6.65;4.35;;;26.70;74.60;;;;;;5056085;28;20032;-81
2023/06/18 08:58:50;;;;;;;4.88;4.28;;;26.80;74.20;;;;;;5057905;28;20118;-82
2023/06/18 09:01:16;;;;;;;4.80;4.25;;;27.00;74.00;;;;;;5060097;28;20036;-82
2023/06/18 09:03:42;;;;;;;5.30;4.20;;;27.20;73.80;;;;;;5072650;28;20070;-83
2023/06/18 09:06:09;;;;;;;5.80;4.40;;;27.30;73.00;;;;;;5060582;28;20090;-81
2023/06/18 09:08:36;;;;;;;5.18;4.25;;;27.40;72.50;;;;;;5061828;28;20032;-82
2023/06/18 09:11:03;;;;;;;5.25;4.20;;;27.50;72.20;;;;;;5060161;28;20050;-81
2023/06/18 09:13:29;;;;;;;4.82;3.58;;;27.60;72.10;;;;;;5070194;28;20645;-82
2023/06/18 09:15:55;;;;;;;6.90;4.03;;;27.80;72.00;;;;;;5070216;28;20027;-83
2023/06/18 09:18:23;;;;;;;4.28;3.42;;;27.90;71.60;;;;;;5052208;28;20036;-82
2023/06/18 09:20:51;;;;;;;6.13;4.20;;;28.00;71.40;;;;;;5069569;28;20032;-81
2023/06/18 09:23:17;;;;;;;5.18;3.85;;;28.20;71.20;;;;;;5072433;28;20048;-83
2023/06/18 09:25:52;;;;;;;4.78;3.60;;;28.50;70.80;;;;;;5062613;28;20035;-83
2023/06/18 09:28:19;;;;;;;4.32;3.42;;;28.70;70.40;;;;;;5061714;28;20024;-83
2023/06/18 09:30:52;;;;;;;3.70;2.92;;;28.90;70.10;;;;;;5071325;28;20710;-83
2023/06/18 09:33:34;;;;;;;5.35;3.67;;;29.30;69.90;;;;;;5055079;28;20038;-82
2023/06/18 09:36:00;;;;;;;4.30;3.45;;;29.50;69.00;;;;;;5058781;28;20035;-82
2023/06/18 09:38:40;;;;;;;4.32;3.90;;;29.60;68.40;;;;;;5071906;28;20089;-83
2023/06/18 09:41:14;;;;;;;4.72;3.20;;;29.70;67.60;;;;;;5056880;28;20367;-82
2023/06/18 09:43:43;;;;;;;4.35;3.55;;;29.80;67.40;;;;;;5059899;28;20019;-84
2023/06/18 09:46:09;;;;;;;6.32;3.72;;;29.90;66.80;;;;;;5061658;28;20060;-84
2023/06/18 09:48:41;;;;;;;4.57;3.58;;;30.10;66.40;;;;;;5072119;28;20097;-86
2023/06/18 09:51:07;;;;;;;3.57;3.07;;;30.40;66.30;;;;;;5075515;28;20032;-87
2023/06/18 09:53:33;;;;;;;4.97;3.20;;;30.70;66.10;;;;;;5066869;28;20294;-82
2023/06/18 09:56:16;;;;;;;4.30;3.42;;;30.80;65.60;;;;;;5072613;28;20077;-82
2023/06/18 09:58:44;;;;;;;5.03;3.20;;;30.90;65.30;;;;;;5055458;28;20127;-85
2023/06/18 10:01:10;;;;;;;5.80;3.95;;;30.90;65.10;;;;;;5070396;28;20082;-85
2023/06/18 10:03:36;;;;;;;5.68;3.58;;;30.80;65.10;;;;;;5061343;28;20060;-85
2023/06/18 10:06:20;;;;;;;4.38;3.38;;;30.80;65.00;;;;;;5060146;28;20114;-85
2023/06/18 10:08:56;;;;;;;4.28;3.20;;;30.70;64.80;;;;;;5072477;28;20013;-83
2023/06/18 10:11:22;;;;;;;4.38;3.53;;;30.60;64.80;;;;;;5060528;28;20510;-84
2023/06/18 10:13:51;;;;;;;4.55;3.53;;;30.50;64.60;;;;;;5068039;28;20084;-83
2023/06/18 10:16:20;;;;;;;4.00;3.20;;;30.50;64.60;;;;;;5065669;28;20029;-85
2023/06/18 10:19:11;;;;;;;4.07;3.40;;;30.50;64.50;;;;;;5059919;28;20028;-84
2023/06/18 10:21:40;;;;;;;3.70;2.83;;;30.50;64.30;;;;;;5047627;28;20560;-84
2023/06/18 10:24:17;;;;;;;3.80;3.20;;;30.50;64.50;;;;;;5070161;28;20056;-84
2023/06/18 10:26:43;;;;;;;3.58;2.75;;;30.60;64.40;;;;;;5052660;28;20449;-85
2023/06/18 10:29:12;;;;;;;4.25;3.35;;;30.40;64.20;;;;;;5062785;28;20033;-86
2023/06/18 10:31:38;;;;;;;3.80;3.03;;;30.30;64.20;;;;;;5055956;28;20024;-85
2023/06/18 10:34:04;;;;;;;3.58;3.08;;;30.10;64.10;;;;;;5069939;28;20040;-84
2023/06/18 10:36:30;;;;;;;3.70;3.03;;;29.80;64.00;;;;;;5069772;28;20220;-86
2023/06/18 10:38:57;;;;;;;4.00;3.00;;;29.70;64.30;;;;;;5060461;28;20032;-86
2023/06/18 10:41:23;;;;;;;3.70;3.00;;;29.60;64.40;;;;;;5055208;28;20970;-84
2023/06/18 10:43:50;;;;;;;4.22;3.30;;;29.60;64.50;;;;;;5057753;28;20028;-87
2023/06/18 10:46:16;;;;;;;3.95;2.83;;;29.50;64.50;;;;;;5069021;28;20137;-84
2023/06/18 10:49:19;;;;;;;3.78;2.83;;;29.30;64.60;;;;;;5067934;28;20123;-84
2023/06/18 10:52:10;;;;;;;3.40;2.70;;;29.30;64.70;;;;;;5069739;28;20044;-84
2023/06/18 10:54:37;;;;;;;3.78;2.85;;;29.10;64.80;;;;;;5069337;28;20916;-84
2023/06/18 10:57:04;;;;;;;3.60;3.03;;;29.10;65.00;;;;;;5069123;28;20120;-84
2023/06/18 10:59:35;;;;;;;6.57;3.55;;;29.00;64.90;;;;;;5053642;28;20097;-84
2023/06/18 11:02:02;;;;;;;4.75;3.47;;;29.00;64.90;;;;;;5068823;28;20028;-84
2023/06/18 11:04:34;;;;;;;5.82;3.83;;;28.80;65.00;;;;;;5059006;28;20024;-84
2023/06/18 11:07:12;;;;;;;;;;;28.70;65.00;;;;;;5052925;28;20032;-81
2023/06/18 11:09:58;;;;;;;3.80;3.25;;;28.50;65.30;;;;;;5068356;28;19999;-84
2023/06/18 11:12:28;;;;;;;5.55;3.35;;;28.40;65.60;;;;;;5067747;28;20581;-84
2023/06/18 11:15:13;;;;;;;5.72;4.20;;;28.30;65.70;;;;;;5058806;28;20031;-82
2023/06/18 11:17:40;;;;;;;6.15;4.25;;;28.20;65.90;;;;;;5070926;28;20040;-80
2023/06/18 11:20:06;;;;;;;4.05;3.65;;;28.00;66.30;;;;;;5059001;28;20043;-82
2023/06/18 11:22:33;;;;;;;3.97;3.17;;;27.80;66.60;;;;;;5068137;28;20855;-82
2023/06/18 11:24:59;;;;;;;3.85;3.05;;;27.80;67.10;;;;;;5054523;28;20062;-82
2023/06/18 11:27:26;;;;;;;4.28;2.85;;;27.80;67.20;;;;;;5068929;28;20065;-81
2023/06/18 11:29:56;;;;;;;4.40;3.50;;;27.90;67.50;;;;;;5056761;28;20055;-80
2023/06/18 11:32:25;;;;;;;3.58;3.10;;;27.80;67.80;;;;;;5055589;28;20036;-80
2023/06/18 11:34:53;;;;;;;5.90;3.15;;;27.70;68.00;;;;;;5054064;28;20148;-82
2023/06/18 11:37:19;;;;;;;4.97;3.22;;;27.70;68.20;;;;;;5069426;28;20129;-82
2023/06/18 11:39:46;;;;;;;5.78;3.50;;;27.80;68.40;;;;;;5068473;28;20103;-82
2023/06/18 11:42:13;;;;;;;4.50;3.75;;;27.80;68.60;;;;;;5070731;28;20032;-83
2023/06/18 11:44:49;;;;;;;4.28;3.28;;;27.70;68.60;;;;;;5069590;28;20069;-83
2023/06/18 11:47:15;;;;;;;3.38;3.05;;;27.80;68.70;;;;;;5053867;28;20435;-86
2023/06/18 11:49:45;;;;;;;5.18;3.30;;;27.70;68.90;;;;;;5056828;28;20033;-85
2023/06/18 11:52:18;;;;;;;3.95;2.97;;;27.80;69.50;;;;;;5059093;28;20359;-81
2023/06/18 11:54:45;;;;;;;6.03;3.47;;;27.90;69.40;;;;;;5073903;28;20032;-82
2023/06/18 11:57:12;;;;;;;3.47;2.88;;;28.00;69.30;;;;;;5060314;28;20025;-82
2023/06/18 11:59:43;;;;;;;4.13;3.35;;;28.00;69.30;;;;;;5060040;28;20115;-84
2023/06/18 12:02:13;;;;;;;5.72;3.65;;;28.10;69.20;;;;;;5071530;28;20379;-84
2023/06/18 12:04:43;;;;;;;4.50;3.65;;;28.10;69.10;;;;;;5060431;28;20035;-83
2023/06/18 12:07:19;;;;;;;4.07;3.13;;;28.20;69.10;;;;;;5058832;28;20037;-85
2023/06/18 12:09:46;;;;;;;4.18;3.05;;;28.20;69.20;;;;;;5075411;28;20492;-87
2023/06/18 12:12:12;;;;;;;3.67;2.95;;;28.40;69.10;;;;;;5075193;28;20598;-85
2023/06/18 12:15:07;;;;;;;4.00;3.50;;;28.50;69.00;;;;;;5058075;28;20991;-86
2023/06/18 12:17:40;;;;;;;4.88;3.25;;;28.60;68.90;;;;;;5044369;28;20036;-85
2023/06/18 12:20:12;;;;;;;4.88;3.13;;;28.70;69.10;;;;;;5073351;28;20663;-86
2023/06/18 12:22:39;;;;;;;3.45;2.88;;;28.70;69.30;;;;;;5058669;28;20032;-85
2023/06/18 12:25:06;;;;;;;3.97;3.28;;;28.70;69.50;;;;;;5062180;28;20639;-85
2023/06/18 12:27:34;;;;;;;3.95;3.10;;;28.60;69.60;;;;;;5057637;28;20063;-85
2023/06/18 12:30:05;;;;;;;3.72;3.08;;;28.60;69.80;;;;;;5062240;28;20028;-85
2023/06/18 12:32:35;;;;;;;4.03;3.35;;;28.70;69.90;;;;;;5071862;28;20810;-85
2023/06/18 12:35:15;;;;;;;4.30;3.20;;;28.80;69.90;;;;;;5055880;28;20086;-81
2023/06/18 12:37:46;;;;;;;4.97;3.30;;;28.80;69.90;;;;;;5063088;28;20423;-80
2023/06/18 12:40:24;;;;;;;4.32;3.13;;;29.00;69.90;;;;;;5072607;28;20028;-80
2023/06/18 12:42:51;;;;;;;4.45;3.45;;;29.00;69.90;;;;;;5072379;28;20020;-82
2023/06/18 12:45:23;;;;;;;3.97;3.35;;;29.10;69.90;;;;;;5055605;28;20027;-84
2023/06/18 12:47:48;;;;;;;4.35;3.55;;;29.10;69.70;;;;;;5074789;28;20508;-87
2023/06/18 12:50:46;;;;;;;4.13;3.65;;;29.10;69.70;;;;;;5072605;28;20067;-84